Погода Каарапона неделю

Мату-Гросу-ду-Сул, Бразилия

17 - 23 июня
  • 17июня
    Сегодня
    +20°
    +32°
    Небольшая облачность
    ВремяПогодаТемператураВлажностьДавлениеВетер, м/сВероятность осадков
    02:00Практически безоблачно+22°C62 %721 мм2.3 м/с5 %
    05:00Небольшая облачность+20°C70 %721 мм1.6 м/с5 %
    08:00Облачно с прояснениями+22°C59 %721 мм2.6 м/с5 %
    11:00Ясно и безоблачно+28°C40 %722 мм3.4 м/с5 %
    14:00Небольшая облачность+31°C30 %720 мм5.4 м/с5 %
    17:00Ясно и безоблачно+29°C42 %719 мм2.6 м/с5 %
    20:00Ясно и безоблачно+24°C52 %720 мм2.9 м/с5 %
    23:00Облачно с прояснениями+24°C53 %720 мм3.2 м/с5 %
  • 18июня
    Вторник
    +19°
    +32°
    Ясно и безоблачно
    ВремяПогодаТемператураВлажностьДавлениеВетер, м/сВероятность осадков
    02:00Облачно с прояснениями+23°C57 %720 мм3.0 м/с5 %
    05:00Практически безоблачно+21°C64 %719 мм3.2 м/с5 %
    08:00Ясно и безоблачно+22°C61 %721 мм3.0 м/с5 %
    11:00Ясно и безоблачно+29°C40 %721 мм4.7 м/с5 %
    14:00Ясно и безоблачно+31°C29 %719 мм5.1 м/с5 %
    17:00Ясно и безоблачно+29°C40 %719 мм3.2 м/с5 %
    20:00Ясно и безоблачно+25°C48 %720 мм3.5 м/с5 %
    23:00Ясно и безоблачно+23°C53 %720 мм3.9 м/с4 %
  • 19июня
    Среда
    +20°
    +31°
    Ясно и безоблачно
    ВремяПогодаТемператураВлажностьДавлениеВетер, м/сВероятность осадков
    02:00Ясно и безоблачно+21°C59 %720 мм2.7 м/с5 %
    05:00Небольшая облачность+20°C65 %720 мм3.1 м/с5 %
    08:00Ясно и безоблачно+21°C59 %722 мм3.2 м/с5 %
    11:00Ясно и безоблачно+28°C35 %723 мм3.8 м/с5 %
    14:00Ясно и безоблачно+31°C33 %721 мм4.1 м/с3 %
    17:00Ясно и безоблачно+29°C46 %721 мм1.8 м/с5 %
    20:00Практически безоблачно+25°C55 %722 мм2.3 м/с4 %
    23:00Небольшая облачность+23°C58 %722 мм2.4 м/с5 %
  • 20июня
    Четверг
    +19°
    +31°
    Небольшая облачность
    ВремяПогодаТемператураВлажностьДавлениеВетер, м/сВероятность осадков
    02:00Практически безоблачно+21°C62 %722 мм2.5 м/с5 %
    05:00Небольшая облачность+20°C60 %722 мм3.3 м/с4 %
    08:00Небольшая облачность+22°C52 %724 мм2.5 м/с5 %
    11:00Практически безоблачно+28°C33 %724 мм2.3 м/с3 %
    14:00Небольшая облачность+29°C30 %722 мм1.7 м/с3 %
    17:00Ясно и безоблачно+29°C39 %722 мм2.1 м/с5 %
    20:00Ясно и безоблачно+25°C39 %722 мм3.6 м/с5 %
    23:00Ясно и безоблачно+22°C44 %722 мм3.5 м/с5 %
  • 21июня
    Пятница
    +20°
    +33°
    Облачно с прояснениями
    ВремяПогодаТемператураВлажностьДавлениеВетер, м/сВероятность осадков
    02:00Ясно и безоблачно+20°C48 %721 мм3.5 м/с5 %
    05:00Ясно и безоблачно+20°C49 %721 мм3.6 м/с5 %
    08:00Ясно и безоблачно+21°C44 %723 мм3.4 м/с5 %
    11:00Небольшая облачность+29°C30 %723 мм4.2 м/с5 %
    14:00Облачно с прояснениями+32°C25 %720 мм4.7 м/с5 %
    17:00Облачно с прояснениями+29°C34 %720 мм3.1 м/с5 %
    20:00Облачно с прояснениями+26°C35 %720 мм3.7 м/с5 %
    23:00Облачно с прояснениями+23°C40 %721 мм3.4 м/с5 %
Мы используем cookies
Соглашаюсь